sensor_id;sensor_type;location;lat;lon;timestamp;pressure;altitude;pressure_sealevel;temperature;humidity
32789;BME280;19141;48.980;8.410;2023-03-07T05:22:33;98904.56;;;3.77;74.46
32789;BME280;19141;48.980;8.410;2023-03-07T05:24:58;98894.34;;;3.83;73.99
32789;BME280;19141;48.980;8.410;2023-03-07T05:27:24;98895.22;;;3.91;73.27
32789;BME280;19141;48.980;8.410;2023-03-07T05:29:50;98897.34;;;3.96;73.09
32789;BME280;19141;48.980;8.410;2023-03-07T05:32:15;98889.94;;;3.91;72.68
32789;BME280;19141;48.980;8.410;2023-03-07T05:34:41;98898.84;;;3.98;72.44
32789;BME280;19141;48.980;8.410;2023-03-07T05:37:07;98894.53;;;3.97;72.90
32789;BME280;19141;48.980;8.410;2023-03-07T05:39:32;98887.94;;;4.01;72.45
32789;BME280;19141;48.980;8.410;2023-03-07T05:41:58;98896.69;;;4.10;71.40
32789;BME280;19141;48.980;8.410;2023-03-07T05:44:24;98882.19;;;4.06;71.58
32789;BME280;19141;48.980;8.410;2023-03-07T05:46:49;98879.72;;;4.04;71.52
32789;BME280;19141;48.980;8.410;2023-03-07T05:49:15;98892.41;;;4.09;71.13
32789;BME280;19141;48.980;8.410;2023-03-07T05:51:40;98887.94;;;4.09;70.91
32789;BME280;19141;48.980;8.410;2023-03-07T05:54:06;98883.50;;;4.10;71.21
32789;BME280;19141;48.980;8.410;2023-03-07T05:56:32;98879.91;;;4.11;71.58
32789;BME280;19141;48.980;8.410;2023-03-07T05:58:58;98875.44;;;4.12;71.51
32789;BME280;19141;48.980;8.410;2023-03-07T06:01:24;98881.38;;;4.14;70.99
32789;BME280;19141;48.980;8.410;2023-03-07T06:03:49;98876.91;;;4.14;71.26
32789;BME280;19141;48.980;8.410;2023-03-07T06:06:15;98874.78;;;4.18;70.62
32789;BME280;19141;48.980;8.410;2023-03-07T06:08:41;98873.13;;;4.17;70.09
32789;BME280;19141;48.980;8.410;2023-03-07T06:11:07;98873.63;;;4.12;70.41
32789;BME280;19141;48.980;8.410;2023-03-07T06:13:36;98874.63;;;4.19;69.63
32789;BME280;19141;48.980;8.410;2023-03-07T06:16:01;98870.81;;;4.22;70.25
32789;BME280;19141;48.980;8.410;2023-03-07T06:18:27;98866.53;;;4.21;70.03
32789;BME280;19141;48.980;8.410;2023-03-07T06:21:01;98870.66;;;4.15;69.75
32789;BME280;19141;48.980;8.410;2023-03-07T06:23:34;98855.66;;;4.16;70.29
32789;BME280;19141;48.980;8.410;2023-03-07T06:26:01;98869.34;;;4.27;70.27
32789;BME280;19141;48.980;8.410;2023-03-07T06:28:26;98871.16;;;4.19;69.86
32789;BME280;19141;48.980;8.410;2023-03-07T06:30:53;98873.13;;;4.17;70.86
32789;BME280;19141;48.980;8.410;2023-03-07T06:33:19;98876.75;;;4.24;70.22
32789;BME280;19141;48.980;8.410;2023-03-07T06:35:45;98874.13;;;4.24;69.37
32789;BME280;19141;48.980;8.410;2023-03-07T06:38:13;98878.22;;;4.26;69.94
32789;BME280;19141;48.980;8.410;2023-03-07T06:40:38;98881.03;;;4.33;69.41
32789;BME280;19141;48.980;8.410;2023-03-07T06:43:04;98871.66;;;4.30;69.48
32789;BME280;19141;48.980;8.410;2023-03-07T06:45:30;98878.41;;;4.33;69.52
32789;BME280;19141;48.980;8.410;2023-03-07T06:47:56;98865.38;;;4.40;68.60
32789;BME280;19141;48.980;8.410;2023-03-07T06:50:22;98870.00;;;4.38;68.70
32789;BME280;19141;48.980;8.410;2023-03-07T06:52:48;98868.19;;;4.38;68.39
32789;BME280;19141;48.980;8.410;2023-03-07T06:55:17;98870.13;;;4.52;68.41
32789;BME280;19141;48.980;8.410;2023-03-07T06:57:44;98874.06;;;4.48;67.68
32789;BME280;19141;48.980;8.410;2023-03-07T07:00:10;98877.38;;;4.50;68.24
32789;BME280;19141;48.980;8.410;2023-03-07T07:02:36;98876.03;;;4.54;67.91
32789;BME280;19141;48.980;8.410;2023-03-07T07:05:03;98879.50;;;4.55;68.32
32789;BME280;19141;48.980;8.410;2023-03-07T07:07:29;98885.09;;;4.60;67.04
32789;BME280;19141;48.980;8.410;2023-03-07T07:09:55;98878.66;;;4.62;67.43
32789;BME280;19141;48.980;8.410;2023-03-07T07:12:22;98885.09;;;4.68;67.06
32789;BME280;19141;48.980;8.410;2023-03-07T07:14:48;98883.63;;;4.66;67.62
32789;BME280;19141;48.980;8.410;2023-03-07T07:17:14;98885.91;;;4.69;67.29
32789;BME280;19141;48.980;8.410;2023-03-07T07:19:39;98891.34;;;4.67;67.73
32789;BME280;19141;48.980;8.410;2023-03-07T07:22:05;98883.41;;;4.75;67.70
32789;BME280;19141;48.980;8.410;2023-03-07T07:24:36;98884.22;;;4.76;67.68
32789;BME280;19141;48.980;8.410;2023-03-07T07:27:02;98889.19;;;4.79;67.10
32789;BME280;19141;48.980;8.410;2023-03-07T07:29:27;98897.44;;;4.84;66.61
32789;BME280;19141;48.980;8.410;2023-03-07T07:31:53;98901.53;;;4.86;66.51
32789;BME280;19141;48.980;8.410;2023-03-07T07:34:19;98903.34;;;4.86;65.63
32789;BME280;19141;48.980;8.410;2023-03-07T07:36:45;98898.41;;;4.91;65.91
32789;BME280;19141;48.980;8.410;2023-03-07T07:39:11;98898.72;;;4.88;65.99
32789;BME280;19141;48.980;8.410;2023-03-07T07:41:40;98894.75;;;4.92;66.00
32789;BME280;19141;48.980;8.410;2023-03-07T07:44:06;98899.69;;;4.95;66.10
32789;BME280;19141;48.980;8.410;2023-03-07T07:46:36;98903.16;;;4.96;65.46
32789;BME280;19141;48.980;8.410;2023-03-07T07:49:02;98880.38;;;4.95;65.37
32789;BME280;19141;48.980;8.410;2023-03-07T07:51:28;98891.75;;;5.03;64.86
32789;BME280;19141;48.980;8.410;2023-03-07T07:53:54;98888.59;;;5.08;64.83
32789;BME280;19141;48.980;8.410;2023-03-07T07:56:19;98887.91;;;5.14;64.73
32789;BME280;19141;48.980;8.410;2023-03-07T07:58:45;98887.91;;;5.14;64.27
32789;BME280;19141;48.980;8.410;2023-03-07T08:01:19;98887.75;;;5.15;64.29
32789;BME280;19141;48.980;8.410;2023-03-07T08:03:45;98881.13;;;5.20;64.62
32789;BME280;19141;48.980;8.410;2023-03-07T08:06:11;98876.50;;;5.22;64.01
32789;BME280;19141;48.980;8.410;2023-03-07T08:08:37;98872.00;;;5.30;64.43
32789;BME280;19141;48.980;8.410;2023-03-07T08:11:03;98883.38;;;5.31;64.91
32789;BME280;19141;48.980;8.410;2023-03-07T08:13:29;98879.94;;;5.30;62.88
32789;BME280;19141;48.980;8.410;2023-03-07T08:15:55;98882.69;;;5.37;63.87
32789;BME280;19141;48.980;8.410;2023-03-07T08:18:20;98876.09;;;5.33;63.58
32789;BME280;19141;48.980;8.410;2023-03-07T08:20:46;98878.56;;;5.34;62.39
32789;BME280;19141;48.980;8.410;2023-03-07T08:23:11;98881.22;;;5.34;63.15
32789;BME280;19141;48.980;8.410;2023-03-07T08:25:37;98874.13;;;5.35;63.18
32789;BME280;19141;48.980;8.410;2023-03-07T08:28:02;98876.09;;;5.33;63.01
32789;BME280;19141;48.980;8.410;2023-03-07T08:30:31;98874.47;;;5.32;63.25
32789;BME280;19141;48.980;8.410;2023-03-07T08:32:56;98873.47;;;5.33;62.30
32789;BME280;19141;48.980;8.410;2023-03-07T08:35:23;98876.09;;;5.33;63.23
32789;BME280;19141;48.980;8.410;2023-03-07T08:37:53;98868.84;;;5.35;63.39
32789;BME280;19141;48.980;8.410;2023-03-07T08:40:20;98866.50;;;5.40;64.21
32789;BME280;19141;48.980;8.410;2023-03-07T08:42:45;98863.22;;;5.38;64.14
32789;BME280;19141;48.980;8.410;2023-03-07T08:45:11;98860.38;;;5.39;63.66
32789;BME280;19141;48.980;8.410;2023-03-07T08:47:36;98862.41;;;5.37;63.68
32789;BME280;19141;48.980;8.410;2023-03-07T08:50:03;98864.66;;;5.40;63.67
32789;BME280;19141;48.980;8.410;2023-03-07T08:52:29;98861.19;;;5.48;62.13
32789;BME280;19141;48.980;8.410;2023-03-07T08:54:54;98862.84;;;5.41;62.69
32789;BME280;19141;48.980;8.410;2023-03-07T08:57:20;98857.88;;;5.46;62.98
32789;BME280;19141;48.980;8.410;2023-03-07T08:59:45;98863.22;;;5.38;62.54
32789;BME280;19141;48.980;8.410;2023-03-07T09:02:11;98857.44;;;5.34;62.38
32789;BME280;19141;48.980;8.410;2023-03-07T09:04:37;98852.34;;;5.33;62.50
32789;BME280;19141;48.980;8.410;2023-03-07T09:07:02;98860.75;;;5.36;62.88
32789;BME280;19141;48.980;8.410;2023-03-07T09:09:29;98852.84;;;5.36;63.55
32789;BME280;19141;48.980;8.410;2023-03-07T09:11:54;98866.84;;;5.37;63.66
32789;BME280;19141;48.980;8.410;2023-03-07T09:14:19;98854.78;;;5.42;63.35
32789;BME280;19141;48.980;8.410;2023-03-07T09:16:45;98857.75;;;5.39;63.65
32789;BME280;19141;48.980;8.410;2023-03-07T09:19:10;98862.84;;;5.41;63.68
32789;BME280;19141;48.980;8.410;2023-03-07T09:21:36;98851.78;;;5.45;63.81
32789;BME280;19141;48.980;8.410;2023-03-07T09:24:01;98856.06;;;5.47;63.05
32789;BME280;19141;48.980;8.410;2023-03-07T09:26:26;98852.25;;;5.49;63.40
32789;BME280;19141;48.980;8.410;2023-03-07T09:28:52;98854.72;;;5.51;64.02
32789;BME280;19141;48.980;8.410;2023-03-07T09:31:17;98851.44;;;5.49;63.24
32789;BME280;19141;48.980;8.410;2023-03-07T09:33:43;98848.75;;;5.57;63.43
32789;BME280;19141;48.980;8.410;2023-03-07T09:36:10;98841.41;;;5.67;63.54
32789;BME280;19141;48.980;8.410;2023-03-07T09:38:37;98845.97;;;5.73;61.98
32789;BME280;19141;48.980;8.410;2023-03-07T09:43:52;98848.75;;;5.80;61.59
32789;BME280;19141;48.980;8.410;2023-03-07T09:50:13;98837.13;;;5.89;60.42
32789;BME280;19141;48.980;8.410;2023-03-07T09:52:43;98834.75;;;6.02;60.68
32789;BME280;19141;48.980;8.410;2023-03-07T09:55:12;98836.09;;;5.98;59.84
32789;BME280;19141;48.980;8.410;2023-03-07T09:57:47;98839.59;;;6.13;58.87
32789;BME280;19141;48.980;8.410;2023-03-07T10:00:21;98835.03;;;6.07;57.92
32789;BME280;19141;48.980;8.410;2023-03-07T10:05:28;98831.78;;;6.20;58.06
32789;BME280;19141;48.980;8.410;2023-03-07T10:07:56;98822.03;;;6.20;57.58
32789;BME280;19141;48.980;8.410;2023-03-07T10:10:40;98828.03;;;6.14;58.80
32789;BME280;19141;48.980;8.410;2023-03-07T10:16:13;98816.41;;;6.01;60.32
32789;BME280;19141;48.980;8.410;2023-03-07T10:27:02;98807.00;;;5.75;58.52
32789;BME280;19141;48.980;8.410;2023-03-07T10:29:38;98812.56;;;5.80;58.95
32789;BME280;19141;48.980;8.410;2023-03-07T10:32:28;98807.13;;;5.82;58.60
32789;BME280;19141;48.980;8.410;2023-03-07T10:37:47;98797.34;;;6.05;57.21
32789;BME280;19141;48.980;8.410;2023-03-07T10:40:49;98790.63;;;6.17;57.42
32789;BME280;19141;48.980;8.410;2023-03-07T10:43:23;98778.91;;;6.35;56.08
32789;BME280;19141;48.980;8.410;2023-03-07T10:45:55;98790.38;;;6.57;56.24
32789;BME280;19141;48.980;8.410;2023-03-07T10:48:23;98779.16;;;6.69;55.58
32789;BME280;19141;48.980;8.410;2023-03-07T10:50:55;98775.25;;;6.80;53.99
32789;BME280;19141;48.980;8.410;2023-03-07T10:53:27;98778.69;;;6.80;53.22
32789;BME280;19141;48.980;8.410;2023-03-07T10:58:35;98787.09;;;6.69;52.25
32789;BME280;19141;48.980;8.410;2023-03-07T11:05:59;98767.22;;;6.73;52.95
32789;BME280;19141;48.980;8.410;2023-03-07T11:08:33;98781.19;;;6.67;52.05
32789;BME280;19141;48.980;8.410;2023-03-07T11:11:03;98776.16;;;6.72;51.85
32789;BME280;19141;48.980;8.410;2023-03-07T11:13:29;98774.16;;;6.74;51.94
32789;BME280;19141;48.980;8.410;2023-03-07T11:16:28;98775.97;;;6.74;52.10
32789;BME280;19141;48.980;8.410;2023-03-07T11:18:53;98772.78;;;6.78;51.95
32789;BME280;19141;48.980;8.410;2023-03-07T11:21:33;98765.16;;;6.90;52.25
32789;BME280;19141;48.980;8.410;2023-03-07T11:24:26;98767.56;;;6.85;51.69
32789;BME280;19141;48.980;8.410;2023-03-07T11:26:55;98758.00;;;6.69;51.01
32789;BME280;19141;48.980;8.410;2023-03-07T11:29:21;98769.03;;;6.73;51.43
32789;BME280;19141;48.980;8.410;2023-03-07T11:32:21;98767.84;;;6.75;51.91
32789;BME280;19141;48.980;8.410;2023-03-07T11:34:58;98747.94;;;6.79;51.73
32789;BME280;19141;48.980;8.410;2023-03-07T11:37:29;98757.06;;;6.92;51.51
32789;BME280;19141;48.980;8.410;2023-03-07T11:40:20;98741.03;;;6.78;49.82
32789;BME280;19141;48.980;8.410;2023-03-07T11:46:01;98750.88;;;6.85;50.77
32789;BME280;19141;48.980;8.410;2023-03-07T11:51:30;98729.47;;;7.01;51.21
32789;BME280;19141;48.980;8.410;2023-03-07T11:54:15;98735.22;;;6.90;50.13
32789;BME280;19141;48.980;8.410;2023-03-07T11:56:54;98734.06;;;6.77;50.01
32789;BME280;19141;48.980;8.410;2023-03-07T11:59:36;98731.75;;;6.89;50.73
32789;BME280;19141;48.980;8.410;2023-03-07T12:05:07;98726.31;;;7.12;50.17
32789;BME280;19141;48.980;8.410;2023-03-07T12:07:58;98715.88;;;7.25;50.19
32789;BME280;19141;48.980;8.410;2023-03-07T12:10:28;98714.66;;;7.28;49.74
32789;BME280;19141;48.980;8.410;2023-03-07T12:13:09;98716.19;;;7.37;49.63
32789;BME280;19141;48.980;8.410;2023-03-07T12:18:43;98712.97;;;7.20;49.39
32789;BME280;19141;48.980;8.410;2023-03-07T12:21:15;98707.09;;;7.25;50.00
32789;BME280;19141;48.980;8.410;2023-03-07T12:23:51;98705.28;;;7.25;50.45
32789;BME280;19141;48.980;8.410;2023-03-07T12:26:27;98703.16;;;7.42;51.62
32789;BME280;19141;48.980;8.410;2023-03-07T12:29:29;98691.56;;;7.43;50.29
32789;BME280;19141;48.980;8.410;2023-03-07T12:31:59;98691.97;;;7.40;50.06
32789;BME280;19141;48.980;8.410;2023-03-07T12:34:40;98691.84;;;7.27;50.25
32789;BME280;19141;48.980;8.410;2023-03-07T12:39:51;98688.44;;;7.12;50.12
32789;BME280;19141;48.980;8.410;2023-03-07T12:45:21;98671.72;;;7.11;50.06
32789;BME280;19141;48.980;8.410;2023-03-07T12:50:26;98662.13;;;7.10;49.39
32789;BME280;19141;48.980;8.410;2023-03-07T12:53:02;98663.59;;;7.13;50.17
32789;BME280;19141;48.980;8.410;2023-03-07T12:55:46;98660.88;;;7.27;49.09
32789;BME280;19141;48.980;8.410;2023-03-07T12:58:25;98659.72;;;7.37;49.26
32789;BME280;19141;48.980;8.410;2023-03-07T13:01:00;98663.25;;;7.44;49.29
32789;BME280;19141;48.980;8.410;2023-03-07T13:03:37;98669.91;;;7.61;48.46
32789;BME280;19141;48.980;8.410;2023-03-07T13:06:11;98663.47;;;7.49;47.78
32789;BME280;19141;48.980;8.410;2023-03-07T13:08:39;98668.56;;;7.44;47.67
32789;BME280;19141;48.980;8.410;2023-03-07T13:11:16;98663.78;;;7.88;47.66
32789;BME280;19141;48.980;8.410;2023-03-07T13:16:09;98656.69;;;8.78;45.01
32789;BME280;19141;48.980;8.410;2023-03-07T13:18:35;98653.50;;;9.42;44.12
32789;BME280;19141;48.980;8.410;2023-03-07T13:21:09;98657.97;;;9.88;42.59
32789;BME280;19141;48.980;8.410;2023-03-07T13:23:35;98666.75;;;9.95;41.83
32789;BME280;19141;48.980;8.410;2023-03-07T13:26:03;98643.78;;;10.21;41.56
32789;BME280;19141;48.980;8.410;2023-03-07T13:28:33;98630.53;;;10.66;40.26
32789;BME280;19141;48.980;8.410;2023-03-07T13:33:39;98635.66;;;10.60;40.73
32789;BME280;19141;48.980;8.410;2023-03-07T13:38:56;98636.31;;;11.51;40.00
32789;BME280;19141;48.980;8.410;2023-03-07T13:44:39;98631.72;;;12.26;38.33
32789;BME280;19141;48.980;8.410;2023-03-07T13:47:43;98636.59;;;12.29;37.91
32789;BME280;19141;48.980;8.410;2023-03-07T13:51:09;98648.72;;;11.88;38.09
32789;BME280;19141;48.980;8.410;2023-03-07T13:56:02;98656.44;;;10.90;39.50
32789;BME280;19141;48.980;8.410;2023-03-07T13:58:45;98660.38;;;10.23;40.62
32789;BME280;19141;48.980;8.410;2023-03-07T14:01:47;98681.09;;;9.74;41.39
32789;BME280;19141;48.980;8.410;2023-03-07T14:04:19;98681.44;;;8.98;42.93
32789;BME280;19141;48.980;8.410;2023-03-07T14:06:57;98675.34;;;8.43;44.35
32789;BME280;19141;48.980;8.410;2023-03-07T14:12:24;98676.50;;;8.00;46.18
32789;BME280;19141;48.980;8.410;2023-03-07T14:15:28;98679.25;;;7.85;46.45
32789;BME280;19141;48.980;8.410;2023-03-07T14:18:10;98687.31;;;7.70;46.86
32789;BME280;19141;48.980;8.410;2023-03-07T14:25:47;98686.47;;;7.42;48.41
32789;BME280;19141;48.980;8.410;2023-03-07T14:28:23;98685.91;;;7.46;48.23
32789;BME280;19141;48.980;8.410;2023-03-07T14:30:59;98688.22;;;7.34;49.27
32789;BME280;19141;48.980;8.410;2023-03-07T14:33:33;98686.03;;;7.38;49.22
32789;BME280;19141;48.980;8.410;2023-03-07T14:36:01;98684.91;;;7.26;48.77
32789;BME280;19141;48.980;8.410;2023-03-07T14:38:27;98683.63;;;7.22;48.79
32789;BME280;19141;48.980;8.410;2023-03-07T14:41:11;98679.75;;;7.18;49.61
32789;BME280;19141;48.980;8.410;2023-03-07T14:46:17;98676.69;;;7.21;49.66
32789;BME280;19141;48.980;8.410;2023-03-07T14:48:55;98680.09;;;7.15;49.90
32789;BME280;19141;48.980;8.410;2023-03-07T14:51:26;98673.38;;;7.12;49.44
32789;BME280;19141;48.980;8.410;2023-03-07T14:53:54;98674.59;;;7.16;50.46
32789;BME280;19141;48.980;8.410;2023-03-07T14:56:28;98676.63;;;7.14;50.18
32789;BME280;19141;48.980;8.410;2023-03-07T14:59:05;98666.31;;;7.19;50.67
32789;BME280;19141;48.980;8.410;2023-03-07T15:01:38;98669.81;;;7.26;50.51
32789;BME280;19141;48.980;8.410;2023-03-07T15:04:29;98670.19;;;7.23;50.58
32789;BME280;19141;48.980;8.410;2023-03-07T15:06:57;98669.16;;;7.18;49.98
32789;BME280;19141;48.980;8.410;2023-03-07T15:09:23;98667.31;;;7.18;50.35
32789;BME280;19141;48.980;8.410;2023-03-07T15:14:37;98678.34;;;7.22;50.39
32789;BME280;19141;48.980;8.410;2023-03-07T15:17:26;98671.03;;;7.24;50.43
32789;BME280;19141;48.980;8.410;2023-03-07T15:19:58;98662.69;;;7.27;50.50
32789;BME280;19141;48.980;8.410;2023-03-07T15:22:31;98674.63;;;7.38;50.11
32789;BME280;19141;48.980;8.410;2023-03-07T15:25:04;98666.72;;;7.23;50.41
32789;BME280;19141;48.980;8.410;2023-03-07T15:27:31;98670.44;;;7.28;51.33
32789;BME280;19141;48.980;8.410;2023-03-07T15:30:00;98662.31;;;7.30;51.26
32789;BME280;19141;48.980;8.410;2023-03-07T15:32:39;98653.94;;;7.26;51.42
32789;BME280;19141;48.980;8.410;2023-03-07T15:37:35;98654.06;;;7.18;51.94
32789;BME280;19141;48.980;8.410;2023-03-07T15:42:50;98682.81;;;7.21;51.65
32789;BME280;19141;48.980;8.410;2023-03-07T15:45:30;98678.13;;;7.23;51.59
32789;BME280;19141;48.980;8.410;2023-03-07T15:48:00;98677.53;;;7.21;52.53
32789;BME280;19141;48.980;8.410;2023-03-07T15:50:26;98669.38;;;7.23;52.49
32789;BME280;19141;48.980;8.410;2023-03-07T15:52:59;98666.38;;;7.26;52.68
32789;BME280;19141;48.980;8.410;2023-03-07T15:55:26;98668.56;;;7.22;53.04
32789;BME280;19141;48.980;8.410;2023-03-07T15:57:54;98670.59;;;7.20;52.97
32789;BME280;19141;48.980;8.410;2023-03-07T16:00:29;98668.75;;;7.21;52.75
32789;BME280;19141;48.980;8.410;2023-03-07T16:03:31;98663.72;;;7.26;52.96
32789;BME280;19141;48.980;8.410;2023-03-07T16:05:58;98662.44;;;7.22;52.57
32789;BME280;19141;48.980;8.410;2023-03-07T16:08:24;98658.50;;;7.11;53.19
32789;BME280;19141;48.980;8.410;2023-03-07T16:11:09;98650.16;;;7.14;53.21
32789;BME280;19141;48.980;8.410;2023-03-07T16:13:40;98654.91;;;7.19;52.93
32789;BME280;19141;48.980;8.410;2023-03-07T16:18:38;98659.31;;;7.12;53.93
32789;BME280;19141;48.980;8.410;2023-03-07T16:21:04;98647.66;;;7.06;53.85
32789;BME280;19141;48.980;8.410;2023-03-07T16:23:29;98649.28;;;7.07;53.74
32789;BME280;19141;48.980;8.410;2023-03-07T16:25:56;98654.56;;;7.07;53.24
32789;BME280;19141;48.980;8.410;2023-03-07T16:28:23;98654.13;;;7.03;53.27
32789;BME280;19141;48.980;8.410;2023-03-07T16:30:48;98660.22;;;7.04;53.13
32789;BME280;19141;48.980;8.410;2023-03-07T16:33:14;98660.22;;;7.04;53.67
32789;BME280;19141;48.980;8.410;2023-03-07T16:35:39;98657.28;;;6.92;52.66
32789;BME280;19141;48.980;8.410;2023-03-07T16:38:05;98661.75;;;6.92;52.66
32789;BME280;19141;48.980;8.410;2023-03-07T16:40:31;98660.03;;;6.84;53.07
32789;BME280;19141;48.980;8.410;2023-03-07T16:42:57;98653.16;;;6.90;53.16
32789;BME280;19141;48.980;8.410;2023-03-07T16:45:29;98659.94;;;6.92;53.60
32789;BME280;19141;48.980;8.410;2023-03-07T16:47:59;98654.94;;;6.83;52.96
32789;BME280;19141;48.980;8.410;2023-03-07T16:50:28;98664.91;;;6.80;53.44
32789;BME280;19141;48.980;8.410;2023-03-07T16:52:54;98662.25;;;6.80;53.63
32789;BME280;19141;48.980;8.410;2023-03-07T16:55:20;98663.69;;;6.83;53.78
32789;BME280;19141;48.980;8.410;2023-03-07T16:57:49;98656.50;;;6.77;53.29
32789;BME280;19141;48.980;8.410;2023-03-07T17:12:04;98660.72;;;6.71;53.07
32789;BME280;19141;48.980;8.410;2023-03-07T17:14:30;98655.81;;;6.68;53.52
32789;BME280;19141;48.980;8.410;2023-03-07T17:16:55;98669.56;;;6.64;53.51
32789;BME280;19141;48.980;8.410;2023-03-07T17:19:29;98677.72;;;6.62;54.35
32789;BME280;19141;48.980;8.410;2023-03-07T17:21:56;98682.66;;;6.65;54.07
32789;BME280;19141;48.980;8.410;2023-03-07T17:24:23;98685.84;;;6.61;54.11
32789;BME280;19141;48.980;8.410;2023-03-07T17:26:49;98676.44;;;6.58;54.02
32789;BME280;19141;48.980;8.410;2023-03-07T17:29:37;98689.41;;;6.53;54.21
32789;BME280;19141;48.980;8.410;2023-03-07T17:32:04;98697.59;;;6.58;53.73
32789;BME280;19141;48.980;8.410;2023-03-07T17:34:31;98697.59;;;6.58;54.12
32789;BME280;19141;48.980;8.410;2023-03-07T17:36:58;98699.81;;;6.55;53.75
32789;BME280;19141;48.980;8.410;2023-03-07T17:39:25;98707.75;;;6.55;54.24
32789;BME280;19141;48.980;8.410;2023-03-07T17:41:52;98710.13;;;6.49;54.05
32789;BME280;19141;48.980;8.410;2023-03-07T17:44:18;98721.97;;;6.53;54.04
32789;BME280;19141;48.980;8.410;2023-03-07T17:46:43;98718.31;;;6.55;53.90
32789;BME280;19141;48.980;8.410;2023-03-07T17:49:09;98726.00;;;6.49;54.27
32789;BME280;19141;48.980;8.410;2023-03-07T17:51:34;98726.81;;;6.50;53.68
32789;BME280;19141;48.980;8.410;2023-03-07T17:53:59;98729.44;;;6.50;54.06
32789;BME280;19141;48.980;8.410;2023-03-07T17:56:25;98723.16;;;6.51;54.42
32789;BME280;19141;48.980;8.410;2023-03-07T17:58:51;98733.72;;;6.51;54.33
32789;BME280;19141;48.980;8.410;2023-03-07T18:01:17;98736.22;;;6.52;53.40
32789;BME280;19141;48.980;8.410;2023-03-07T18:03:42;98738.88;;;6.52;53.90
32789;BME280;19141;48.980;8.410;2023-03-07T18:06:08;98725.16;;;6.49;53.78
32789;BME280;19141;48.980;8.410;2023-03-07T18:08:35;98740.13;;;6.57;53.78
32789;BME280;19141;48.980;8.410;2023-03-07T18:11:07;98752.91;;;6.53;53.12
32789;BME280;19141;48.980;8.410;2023-03-07T18:13:33;98744.06;;;6.61;52.78
32789;BME280;19141;48.980;8.410;2023-03-07T18:16:01;98744.59;;;6.56;52.94
32789;BME280;19141;48.980;8.410;2023-03-07T18:18:29;98744.59;;;6.56;53.28
32789;BME280;19141;48.980;8.410;2023-03-07T18:21:04;98739.22;;;6.49;53.07
32789;BME280;19141;48.980;8.410;2023-03-07T18:23:31;98743.16;;;6.53;53.11
32789;BME280;19141;48.980;8.410;2023-03-07T18:25:59;98741.50;;;6.52;53.03
32789;BME280;19141;48.980;8.410;2023-03-07T18:28:25;98753.91;;;6.52;53.39
32789;BME280;19141;48.980;8.410;2023-03-07T18:31:08;98751.44;;;6.50;53.50
32789;BME280;19141;48.980;8.410;2023-03-07T18:33:34;98755.63;;;6.45;54.02
32789;BME280;19141;48.980;8.410;2023-03-07T18:36:01;98760.56;;;6.48;53.39
32789;BME280;19141;48.980;8.410;2023-03-07T18:38:26;98765.47;;;6.51;53.07
32789;BME280;19141;48.980;8.410;2023-03-07T18:41:05;98761.56;;;6.47;53.40
32789;BME280;19141;48.980;8.410;2023-03-07T18:43:31;98768.22;;;6.43;53.56
32789;BME280;19141;48.980;8.410;2023-03-07T18:45:56;98774.16;;;6.45;53.23
32789;BME280;19141;48.980;8.410;2023-03-07T18:48:22;98782.06;;;6.45;53.88
32789;BME280;19141;48.980;8.410;2023-03-07T18:51:15;98781.25;;;6.44;53.69
32789;BME280;19141;48.980;8.410;2023-03-07T18:53:41;98774.81;;;6.47;53.70
32789;BME280;19141;48.980;8.410;2023-03-07T18:56:12;98778.47;;;6.46;53.53
32789;BME280;19141;48.980;8.410;2023-03-07T18:58:38;98779.81;;;6.42;53.79
32789;BME280;19141;48.980;8.410;2023-03-07T19:01:16;98785.72;;;6.44;53.70
32789;BME280;19141;48.980;8.410;2023-03-07T19:03:44;98782.47;;;6.42;53.44
32789;BME280;19141;48.980;8.410;2023-03-07T19:06:10;98781.81;;;6.40;53.37
32789;BME280;19141;48.980;8.410;2023-03-07T19:08:37;98782.19;;;6.37;53.14
32789;BME280;19141;48.980;8.410;2023-03-07T19:11:04;98780.81;;;6.41;53.33
32789;BME280;19141;48.980;8.410;2023-03-07T19:13:30;98784.81;;;6.37;53.86
32789;BME280;19141;48.980;8.410;2023-03-07T19:16:21;98790.50;;;6.34;53.52
32789;BME280;19141;48.980;8.410;2023-03-07T19:18:48;98790.66;;;6.32;53.80
32789;BME280;19141;48.980;8.410;2023-03-07T19:21:20;98797.94;;;6.30;53.61
32789;BME280;19141;48.980;8.410;2023-03-07T19:23:47;98793.66;;;6.29;54.56
32789;BME280;19141;48.980;8.410;2023-03-07T19:26:14;98799.06;;;6.36;54.38
32789;BME280;19141;48.980;8.410;2023-03-07T19:28:48;98802.41;;;6.30;54.54
32789;BME280;19141;48.980;8.410;2023-03-07T19:33:45;98801.97;;;6.26;54.53
32789;BME280;19141;48.980;8.410;2023-03-07T19:36:13;98801.78;;;6.28;54.56
32789;BME280;19141;48.980;8.410;2023-03-07T19:38:39;98798.03;;;6.22;54.47
32789;BME280;19141;48.980;8.410;2023-03-07T19:41:10;98804.13;;;6.22;54.08
32789;BME280;19141;48.980;8.410;2023-03-07T19:43:36;98812.72;;;6.24;54.41
32789;BME280;19141;48.980;8.410;2023-03-07T19:46:06;98815.72;;;6.21;54.03
32789;BME280;19141;48.980;8.410;2023-03-07T19:48:32;98807.78;;;6.21;54.00
32789;BME280;19141;48.980;8.410;2023-03-07T19:50:57;98820.38;;;6.19;54.19
32789;BME280;19141;48.980;8.410;2023-03-07T19:53:23;98814.34;;;6.25;54.29
32789;BME280;19141;48.980;8.410;2023-03-07T19:55:48;98819.72;;;6.17;54.25
32789;BME280;19141;48.980;8.410;2023-03-07T19:58:13;98828.13;;;6.21;54.14
32789;BME280;19141;48.980;8.410;2023-03-07T20:00:41;98821.00;;;6.21;53.70
32789;BME280;19141;48.980;8.410;2023-03-07T20:03:18;98825.94;;;6.24;53.71
32789;BME280;19141;48.980;8.410;2023-03-07T20:05:45;98824.66;;;6.20;53.80
32789;BME280;19141;48.980;8.410;2023-03-07T20:08:14;98823.03;;;6.19;53.88
32789;BME280;19141;48.980;8.410;2023-03-07T20:10:40;98825.81;;;6.18;54.07
32789;BME280;19141;48.980;8.410;2023-03-07T20:13:06;98828.66;;;6.16;54.33
32789;BME280;19141;48.980;8.410;2023-03-07T20:15:33;98835.25;;;6.20;53.97
32789;BME280;19141;48.980;8.410;2023-03-07T20:17:59;98831.31;;;6.16;54.29
32789;BME280;19141;48.980;8.410;2023-03-07T20:20:26;98831.31;;;6.16;54.04
32789;BME280;19141;48.980;8.410;2023-03-07T20:22:54;98843.41;;;6.11;54.30
32789;BME280;19141;48.980;8.410;2023-03-07T20:25:19;98841.94;;;6.08;54.02
32789;BME280;19141;48.980;8.410;2023-03-07T20:27:45;98839.41;;;6.15;53.89